sensor_id;sensor_type;location;lat;lon;timestamp;pressure;altitude;pressure_sealevel;temperature;humidity
27294;BME280;14785;52.556;13.430;2023-11-22T00:01:49;101747.22;;;4.04;100.00
27294;BME280;14785;52.556;13.430;2023-11-22T00:04:14;101741.69;;;4.22;100.00
27294;BME280;14785;52.556;13.430;2023-11-22T00:06:40;101742.56;;;4.23;100.00
27294;BME280;14785;52.556;13.430;2023-11-22T00:09:05;101752.22;;;3.92;100.00
27294;BME280;14785;52.556;13.430;2023-11-22T00:11:32;101755.00;;;4.05;100.00
27294;BME280;14785;52.556;13.430;2023-11-22T00:13:57;101751.66;;;3.87;100.00
27294;BME280;14785;52.556;13.430;2023-11-22T00:16:23;101770.47;;;4.11;100.00
27294;BME280;14785;52.556;13.430;2023-11-22T00:18:48;101775.75;;;3.95;100.00
27294;BME280;14785;52.556;13.430;2023-11-22T00:21:15;101781.06;;;4.39;100.00
27294;BME280;14785;52.556;13.430;2023-11-22T00:23:40;101786.72;;;4.18;100.00
27294;BME280;14785;52.556;13.430;2023-11-22T00:26:06;101786.91;;;4.15;100.00
27294;BME280;14785;52.556;13.430;2023-11-22T00:28:32;101792.66;;;4.51;100.00
27294;BME280;14785;52.556;13.430;2023-11-22T00:30:57;101795.13;;;4.54;100.00
27294;BME280;14785;52.556;13.430;2023-11-22T00:33:23;101806.53;;;4.25;100.00
27294;BME280;14785;52.556;13.430;2023-11-22T00:35:48;101794.69;;;4.32;100.00
27294;BME280;14785;52.556;13.430;2023-11-22T00:38:14;101802.50;;;4.33;100.00
27294;BME280;14785;52.556;13.430;2023-11-22T00:40:39;101804.00;;;4.08;100.00
27294;BME280;14785;52.556;13.430;2023-11-22T00:43:05;101798.03;;;4.20;100.00
27294;BME280;14785;52.556;13.430;2023-11-22T00:45:30;101815.59;;;4.35;100.00
27294;BME280;14785;52.556;13.430;2023-11-22T00:47:56;101817.28;;;4.36;100.00
27294;BME280;14785;52.556;13.430;2023-11-22T00:50:21;101818.38;;;4.02;100.00
27294;BME280;14785;52.556;13.430;2023-11-22T00:52:49;101816.84;;;3.98;100.00
27294;BME280;14785;52.556;13.430;2023-11-22T00:55:15;101820.06;;;4.03;100.00
27294;BME280;14785;52.556;13.430;2023-11-22T00:57:40;101814.06;;;4.31;100.00
27294;BME280;14785;52.556;13.430;2023-11-22T01:00:06;101823.94;;;4.27;100.00
27294;BME280;14785;52.556;13.430;2023-11-22T01:02:36;101823.25;;;4.24;100.00
27294;BME280;14785;52.556;13.430;2023-11-22T01:05:07;101832.31;;;4.04;100.00
27294;BME280;14785;52.556;13.430;2023-11-22T01:07:36;101829.75;;;4.03;100.00
27294;BME280;14785;52.556;13.430;2023-11-22T01:10:01;101839.03;;;3.78;100.00
27294;BME280;14785;52.556;13.430;2023-11-22T01:12:27;101837.81;;;3.68;100.00
27294;BME280;14785;52.556;13.430;2023-11-22T01:14:52;101839.94;;;3.62;100.00
27294;BME280;14785;52.556;13.430;2023-11-22T01:17:18;101839.06;;;3.61;100.00
27294;BME280;14785;52.556;13.430;2023-11-22T01:19:44;101832.91;;;3.93;100.00
27294;BME280;14785;52.556;13.430;2023-11-22T01:22:10;101840.25;;;3.71;100.00
27294;BME280;14785;52.556;13.430;2023-11-22T01:24:36;101843.84;;;3.86;100.00
27294;BME280;14785;52.556;13.430;2023-11-22T01:27:03;101835.75;;;3.42;100.00
27294;BME280;14785;52.556;13.430;2023-11-22T01:29:28;101839.53;;;3.69;100.00
27294;BME280;14785;52.556;13.430;2023-11-22T01:31:54;101836.56;;;3.75;100.00
27294;BME280;14785;52.556;13.430;2023-11-22T01:34:20;101830.84;;;3.67;100.00
27294;BME280;14785;52.556;13.430;2023-11-22T01:36:45;101835.69;;;3.75;100.00
27294;BME280;14785;52.556;13.430;2023-11-22T01:39:14;101839.41;;;3.55;100.00
27294;BME280;14785;52.556;13.430;2023-11-22T01:41:40;101838.72;;;3.52;100.00
27294;BME280;14785;52.556;13.430;2023-11-22T01:44:07;101826.22;;;3.40;100.00
27294;BME280;14785;52.556;13.430;2023-11-22T01:46:32;101833.28;;;3.39;100.00
27294;BME280;14785;52.556;13.430;2023-11-22T01:48:59;101834.09;;;3.24;100.00
27294;BME280;14785;52.556;13.430;2023-11-22T01:51:25;101829.72;;;3.40;100.00
27294;BME280;14785;52.556;13.430;2023-11-22T01:53:53;101827.38;;;2.52;100.00
27294;BME280;14785;52.556;13.430;2023-11-22T01:56:20;101847.94;;;2.61;100.00
27294;BME280;14785;52.556;13.430;2023-11-22T01:58:47;101843.84;;;2.90;100.00
27294;BME280;14785;52.556;13.430;2023-11-22T02:01:14;101846.75;;;3.01;100.00
27294;BME280;14785;52.556;13.430;2023-11-22T02:03:41;101861.69;;;2.66;100.00
27294;BME280;14785;52.556;13.430;2023-11-22T02:06:07;101865.34;;;2.28;100.00
27294;BME280;14785;52.556;13.430;2023-11-22T02:08:35;101863.38;;;2.50;100.00
27294;BME280;14785;52.556;13.430;2023-11-22T02:11:01;101860.94;;;2.81;100.00
27294;BME280;14785;52.556;13.430;2023-11-22T02:13:32;101864.47;;;2.80;100.00
27294;BME280;14785;52.556;13.430;2023-11-22T02:15:58;101858.75;;;2.55;100.00
27294;BME280;14785;52.556;13.430;2023-11-22T02:18:27;101866.94;;;2.66;100.00
27294;BME280;14785;52.556;13.430;2023-11-22T02:20:53;101861.94;;;2.09;100.00
27294;BME280;14785;52.556;13.430;2023-11-22T02:23:18;101853.09;;;1.93;100.00
27294;BME280;14785;52.556;13.430;2023-11-22T02:25:44;101862.91;;;2.42;100.00
27294;BME280;14785;52.556;13.430;2023-11-22T02:28:11;101861.88;;;2.28;100.00
27294;BME280;14785;52.556;13.430;2023-11-22T02:30:37;101871.41;;;2.47;100.00
27294;BME280;14785;52.556;13.430;2023-11-22T02:33:02;101873.75;;;2.18;100.00
27294;BME280;14785;52.556;13.430;2023-11-22T02:35:28;101874.63;;;2.35;100.00
27294;BME280;14785;52.556;13.430;2023-11-22T02:37:53;101882.56;;;2.34;100.00
27294;BME280;14785;52.556;13.430;2023-11-22T02:40:20;101881.13;;;2.62;100.00
27294;BME280;14785;52.556;13.430;2023-11-22T02:42:51;101880.38;;;2.77;100.00
27294;BME280;14785;52.556;13.430;2023-11-22T02:45:18;101893.22;;;2.66;100.00
27294;BME280;14785;52.556;13.430;2023-11-22T02:47:44;101900.00;;;2.70;100.00
27294;BME280;14785;52.556;13.430;2023-11-22T02:50:10;101888.25;;;2.94;100.00
27294;BME280;14785;52.556;13.430;2023-11-22T02:52:37;101903.59;;;3.19;100.00
27294;BME280;14785;52.556;13.430;2023-11-22T02:55:03;101903.91;;;3.13;100.00
27294;BME280;14785;52.556;13.430;2023-11-22T02:57:30;101900.53;;;3.11;100.00
27294;BME280;14785;52.556;13.430;2023-11-22T02:59:56;101911.88;;;3.11;100.00
27294;BME280;14785;52.556;13.430;2023-11-22T03:02:22;101930.75;;;3.19;100.00
27294;BME280;14785;52.556;13.430;2023-11-22T03:04:47;101939.03;;;3.12;100.00
27294;BME280;14785;52.556;13.430;2023-11-22T03:07:13;101962.56;;;2.98;100.00
27294;BME280;14785;52.556;13.430;2023-11-22T03:09:39;101961.53;;;3.00;100.00
27294;BME280;14785;52.556;13.430;2023-11-22T03:12:06;101967.72;;;2.99;100.00
27294;BME280;14785;52.556;13.430;2023-11-22T03:14:31;101972.75;;;3.04;100.00
27294;BME280;14785;52.556;13.430;2023-11-22T03:16:57;101971.91;;;3.03;100.00
27294;BME280;14785;52.556;13.430;2023-11-22T03:19:22;101979.75;;;2.86;100.00
27294;BME280;14785;52.556;13.430;2023-11-22T03:21:49;101981.69;;;2.83;100.00
27294;BME280;14785;52.556;13.430;2023-11-22T03:24:15;101977.75;;;2.91;100.00
27294;BME280;14785;52.556;13.430;2023-11-22T03:26:41;101973.44;;;2.90;100.00
27294;BME280;14785;52.556;13.430;2023-11-22T03:29:06;101974.88;;;2.62;100.00
27294;BME280;14785;52.556;13.430;2023-11-22T03:31:32;101984.03;;;2.89;100.00
27294;BME280;14785;52.556;13.430;2023-11-22T03:33:57;101993.72;;;3.05;100.00
27294;BME280;14785;52.556;13.430;2023-11-22T03:36:23;101996.31;;;2.88;100.00
27294;BME280;14785;52.556;13.430;2023-11-22T03:38:49;101988.56;;;2.85;100.00
27294;BME280;14785;52.556;13.430;2023-11-22T03:41:15;101982.91;;;2.76;100.00
27294;BME280;14785;52.556;13.430;2023-11-22T03:43:42;101984.25;;;3.01;100.00
27294;BME280;14785;52.556;13.430;2023-11-22T03:46:08;101969.84;;;2.74;100.00
27294;BME280;14785;52.556;13.430;2023-11-22T03:48:33;101962.50;;;2.64;100.00
27294;BME280;14785;52.556;13.430;2023-11-22T03:50:59;101971.31;;;2.44;100.00
27294;BME280;14785;52.556;13.430;2023-11-22T03:53:24;101965.97;;;2.10;100.00
27294;BME280;14785;52.556;13.430;2023-11-22T03:55:52;101964.16;;;2.48;100.00
27294;BME280;14785;52.556;13.430;2023-11-22T03:58:17;101967.94;;;2.42;100.00
27294;BME280;14785;52.556;13.430;2023-11-22T04:00:43;101962.63;;;2.44;100.00
27294;BME280;14785;52.556;13.430;2023-11-22T04:03:09;101971.50;;;2.23;100.00
27294;BME280;14785;52.556;13.430;2023-11-22T04:05:34;101989.19;;;2.55;100.00
27294;BME280;14785;52.556;13.430;2023-11-22T04:07:59;101995.00;;;2.61;100.00
27294;BME280;14785;52.556;13.430;2023-11-22T04:10:25;102006.81;;;2.53;100.00
27294;BME280;14785;52.556;13.430;2023-11-22T04:12:50;102010.13;;;2.56;100.00
27294;BME280;14785;52.556;13.430;2023-11-22T04:15:16;102016.47;;;2.52;100.00
27294;BME280;14785;52.556;13.430;2023-11-22T04:17:41;102022.94;;;2.45;100.00
27294;BME280;14785;52.556;13.430;2023-11-22T04:20:08;102014.63;;;2.54;100.00
27294;BME280;14785;52.556;13.430;2023-11-22T04:22:43;102020.41;;;2.61;100.00
27294;BME280;14785;52.556;13.430;2023-11-22T04:25:10;102011.56;;;2.63;100.00
27294;BME280;14785;52.556;13.430;2023-11-22T04:27:38;102007.66;;;2.53;100.00
27294;BME280;14785;52.556;13.430;2023-11-22T04:30:06;102003.84;;;2.77;100.00
27294;BME280;14785;52.556;13.430;2023-11-22T04:32:34;102007.50;;;2.56;100.00
27294;BME280;14785;52.556;13.430;2023-11-22T04:34:59;102012.22;;;2.31;100.00
27294;BME280;14785;52.556;13.430;2023-11-22T04:37:24;102018.13;;;2.36;100.00
27294;BME280;14785;52.556;13.430;2023-11-22T04:39:51;102020.28;;;2.27;100.00
27294;BME280;14785;52.556;13.430;2023-11-22T04:42:17;102025.69;;;2.42;100.00
27294;BME280;14785;52.556;13.430;2023-11-22T04:44:43;102028.81;;;2.50;100.00
27294;BME280;14785;52.556;13.430;2023-11-22T04:47:08;102028.25;;;2.25;100.00
27294;BME280;14785;52.556;13.430;2023-11-22T04:49:33;102033.78;;;2.19;100.00
27294;BME280;14785;52.556;13.430;2023-11-22T04:51:59;102033.78;;;2.19;100.00
27294;BME280;14785;52.556;13.430;2023-11-22T04:54:24;102045.97;;;2.20;100.00
27294;BME280;14785;52.556;13.430;2023-11-22T04:56:49;102048.97;;;2.31;100.00
27294;BME280;14785;52.556;13.430;2023-11-22T04:59:15;102061.09;;;2.34;100.00
27294;BME280;14785;52.556;13.430;2023-11-22T05:01:41;102066.63;;;2.46;100.00
27294;BME280;14785;52.556;13.430;2023-11-22T05:04:06;102077.31;;;2.23;100.00
27294;BME280;14785;52.556;13.430;2023-11-22T05:06:31;102080.94;;;2.21;100.00
27294;BME280;14785;52.556;13.430;2023-11-22T05:08:57;102078.63;;;2.33;100.00
27294;BME280;14785;52.556;13.430;2023-11-22T05:11:22;102075.44;;;2.45;100.00
27294;BME280;14785;52.556;13.430;2023-11-22T05:13:48;102076.00;;;2.33;100.00
27294;BME280;14785;52.556;13.430;2023-11-22T05:16:15;102080.88;;;2.22;100.00
27294;BME280;14785;52.556;13.430;2023-11-22T05:18:41;102091.66;;;2.16;100.00
27294;BME280;14785;52.556;13.430;2023-11-22T05:21:06;102086.84;;;2.26;100.00
27294;BME280;14785;52.556;13.430;2023-11-22T05:23:32;102076.91;;;2.32;100.00
27294;BME280;14785;52.556;13.430;2023-11-22T05:25:58;102084.47;;;2.58;100.00
27294;BME280;14785;52.556;13.430;2023-11-22T05:28:27;102082.59;;;2.42;100.00
27294;BME280;14785;52.556;13.430;2023-11-22T05:30:53;102096.88;;;2.36;100.00
27294;BME280;14785;52.556;13.430;2023-11-22T05:33:18;102096.09;;;2.14;100.00
27294;BME280;14785;52.556;13.430;2023-11-22T05:35:44;102100.06;;;2.43;100.00
27294;BME280;14785;52.556;13.430;2023-11-22T05:38:09;102108.13;;;2.38;100.00
27294;BME280;14785;52.556;13.430;2023-11-22T05:40:35;102114.34;;;2.56;100.00
27294;BME280;14785;52.556;13.430;2023-11-22T05:43:00;102116.53;;;2.46;100.00
27294;BME280;14785;52.556;13.430;2023-11-22T05:45:26;102122.22;;;2.17;100.00
27294;BME280;14785;52.556;13.430;2023-11-22T05:47:52;102121.47;;;1.95;100.00
27294;BME280;14785;52.556;13.430;2023-11-22T05:50:18;102118.84;;;1.95;100.00
27294;BME280;14785;52.556;13.430;2023-11-22T05:52:43;102113.16;;;1.85;100.00
27294;BME280;14785;52.556;13.430;2023-11-22T05:55:09;102110.97;;;2.15;100.00
27294;BME280;14785;52.556;13.430;2023-11-22T05:57:35;102106.91;;;1.88;100.00
27294;BME280;14785;52.556;13.430;2023-11-22T06:00:00;102098.97;;;1.89;100.00
27294;BME280;14785;52.556;13.430;2023-11-22T06:02:26;102110.44;;;1.67;100.00
27294;BME280;14785;52.556;13.430;2023-11-22T06:04:51;102107.69;;;1.70;100.00
27294;BME280;14785;52.556;13.430;2023-11-22T06:07:16;102110.13;;;1.74;100.00
27294;BME280;14785;52.556;13.430;2023-11-22T06:09:42;102116.94;;;1.78;100.00
27294;BME280;14785;52.556;13.430;2023-11-22T06:12:07;102113.72;;;1.92;100.00
27294;BME280;14785;52.556;13.430;2023-11-22T06:14:33;102112.63;;;1.98;100.00
27294;BME280;14785;52.556;13.430;2023-11-22T06:16:58;102111.38;;;2.06;100.00
27294;BME280;14785;52.556;13.430;2023-11-22T06:19:23;102120.16;;;2.05;100.00
27294;BME280;14785;52.556;13.430;2023-11-22T06:21:49;102112.41;;;1.82;100.00
27294;BME280;14785;52.556;13.430;2023-11-22T06:24:14;102121.53;;;1.93;100.00
27294;BME280;14785;52.556;13.430;2023-11-22T06:26:44;102129.19;;;1.98;100.00
27294;BME280;14785;52.556;13.430;2023-11-22T06:29:11;102127.53;;;2.16;100.00
27294;BME280;14785;52.556;13.430;2023-11-22T06:31:37;102131.06;;;1.96;100.00
27294;BME280;14785;52.556;13.430;2023-11-22T06:34:02;102132.22;;;1.89;100.00
27294;BME280;14785;52.556;13.430;2023-11-22T06:36:28;102144.28;;;1.73;100.00
27294;BME280;14785;52.556;13.430;2023-11-22T06:38:55;102145.03;;;1.76;100.00
27294;BME280;14785;52.556;13.430;2023-11-22T06:41:20;102149.00;;;1.85;100.00
27294;BME280;14785;52.556;13.430;2023-11-22T06:43:49;102157.88;;;1.82;100.00
27294;BME280;14785;52.556;13.430;2023-11-22T06:46:15;102163.31;;;1.78;100.00
27294;BME280;14785;52.556;13.430;2023-11-22T06:48:42;102172.88;;;1.79;100.00
27294;BME280;14785;52.556;13.430;2023-11-22T06:51:10;102186.31;;;1.71;100.00
27294;BME280;14785;52.556;13.430;2023-11-22T06:53:36;102192.47;;;1.70;100.00
27294;BME280;14785;52.556;13.430;2023-11-22T06:56:01;102204.16;;;1.83;100.00
27294;BME280;14785;52.556;13.430;2023-11-22T06:58:27;102203.81;;;1.71;100.00
27294;BME280;14785;52.556;13.430;2023-11-22T07:00:52;102205.97;;;2.03;100.00
27294;BME280;14785;52.556;13.430;2023-11-22T07:03:18;102203.06;;;1.89;100.00
27294;BME280;14785;52.556;13.430;2023-11-22T07:05:43;102215.03;;;1.96;100.00
27294;BME280;14785;52.556;13.430;2023-11-22T07:08:09;102224.78;;;2.13;100.00
27294;BME280;14785;52.556;13.430;2023-11-22T07:10:36;102221.84;;;2.00;100.00
27294;BME280;14785;52.556;13.430;2023-11-22T07:13:01;102216.72;;;1.97;100.00
27294;BME280;14785;52.556;13.430;2023-11-22T07:15:29;102217.16;;;2.07;100.00
27294;BME280;14785;52.556;13.430;2023-11-22T07:17:55;102217.91;;;1.90;100.00
27294;BME280;14785;52.556;13.430;2023-11-22T07:20:20;102216.13;;;2.11;100.00
27294;BME280;14785;52.556;13.430;2023-11-22T07:22:46;102224.84;;;2.11;100.00
27294;BME280;14785;52.556;13.430;2023-11-22T07:25:12;102225.13;;;2.05;100.00
27294;BME280;14785;52.556;13.430;2023-11-22T07:27:47;102229.97;;;1.94;100.00
27294;BME280;14785;52.556;13.430;2023-11-22T07:30:15;102227.41;;;2.13;100.00
27294;BME280;14785;52.556;13.430;2023-11-22T07:32:41;102229.53;;;1.83;100.00
27294;BME280;14785;52.556;13.430;2023-11-22T07:35:08;102220.53;;;1.90;100.00
27294;BME280;14785;52.556;13.430;2023-11-22T07:37:37;102238.34;;;1.60;100.00
27294;BME280;14785;52.556;13.430;2023-11-22T07:40:06;102248.81;;;1.82;100.00
27294;BME280;14785;52.556;13.430;2023-11-22T07:42:33;102245.25;;;1.63;100.00
27294;BME280;14785;52.556;13.430;2023-11-22T07:45:01;102245.38;;;2.02;100.00
27294;BME280;14785;52.556;13.430;2023-11-22T07:47:26;102246.56;;;2.15;100.00
27294;BME280;14785;52.556;13.430;2023-11-22T07:49:53;102241.47;;;2.32;100.00
27294;BME280;14785;52.556;13.430;2023-11-22T07:52:22;102232.06;;;2.46;100.00
27294;BME280;14785;52.556;13.430;2023-11-22T07:54:48;102213.75;;;2.45;100.00
27294;BME280;14785;52.556;13.430;2023-11-22T07:57:14;102214.34;;;2.51;100.00
27294;BME280;14785;52.556;13.430;2023-11-22T07:59:39;102214.91;;;2.58;100.00
27294;BME280;14785;52.556;13.430;2023-11-22T08:02:05;102207.84;;;2.60;100.00
27294;BME280;14785;52.556;13.430;2023-11-22T08:04:36;102203.72;;;2.73;100.00
27294;BME280;14785;52.556;13.430;2023-11-22T08:07:03;102206.56;;;2.68;100.00
27294;BME280;14785;52.556;13.430;2023-11-22T08:09:29;102198.91;;;2.82;100.00
27294;BME280;14785;52.556;13.430;2023-11-22T08:11:58;102194.34;;;2.67;100.00
27294;BME280;14785;52.556;13.430;2023-11-22T08:14:26;102199.06;;;2.79;100.00
27294;BME280;14785;52.556;13.430;2023-11-22T08:16:53;102196.28;;;2.82;100.00
27294;BME280;14785;52.556;13.430;2023-11-22T08:19:18;102208.44;;;3.03;100.00
27294;BME280;14785;52.556;13.430;2023-11-22T08:21:48;102213.84;;;3.00;100.00
27294;BME280;14785;52.556;13.430;2023-11-22T08:24:14;102220.38;;;3.10;100.00
27294;BME280;14785;52.556;13.430;2023-11-22T08:26:39;102216.53;;;2.80;100.00
27294;BME280;14785;52.556;13.430;2023-11-22T08:29:06;102211.81;;;2.68;100.00
27294;BME280;14785;52.556;13.430;2023-11-22T08:31:33;102213.56;;;3.06;100.00
27294;BME280;14785;52.556;13.430;2023-11-22T08:33:59;102213.69;;;2.85;100.00
27294;BME280;14785;52.556;13.430;2023-11-22T08:36:25;102224.09;;;3.06;100.00
27294;BME280;14785;52.556;13.430;2023-11-22T08:38:53;102222.38;;;3.05;100.00
27294;BME280;14785;52.556;13.430;2023-11-22T08:41:20;102223.22;;;3.06;100.00
27294;BME280;14785;52.556;13.430;2023-11-22T08:43:46;102209.66;;;3.15;100.00
27294;BME280;14785;52.556;13.430;2023-11-22T08:46:13;102203.16;;;3.22;100.00
27294;BME280;14785;52.556;13.430;2023-11-22T08:48:39;102220.53;;;3.07;100.00
27294;BME280;14785;52.556;13.430;2023-11-22T08:51:05;102220.25;;;3.13;100.00
27294;BME280;14785;52.556;13.430;2023-11-22T08:53:30;102225.50;;;3.13;100.00
27294;BME280;14785;52.556;13.430;2023-11-22T08:55:56;102229.38;;;3.23;100.00
27294;BME280;14785;52.556;13.430;2023-11-22T08:58:22;102222.78;;;3.33;100.00
27294;BME280;14785;52.556;13.430;2023-11-22T09:00:48;102222.94;;;3.30;100.00
27294;BME280;14785;52.556;13.430;2023-11-22T09:03:14;102232.44;;;3.51;100.00
27294;BME280;14785;52.556;13.430;2023-11-22T09:05:44;102234.72;;;3.40;100.00
27294;BME280;14785;52.556;13.430;2023-11-22T09:08:11;102244.53;;;3.37;100.00
27294;BME280;14785;52.556;13.430;2023-11-22T09:10:40;102257.25;;;2.90;100.00
27294;BME280;14785;52.556;13.430;2023-11-22T09:13:08;102240.19;;;3.17;100.00
27294;BME280;14785;52.556;13.430;2023-11-22T09:15:34;102226.31;;;3.32;100.00
27294;BME280;14785;52.556;13.430;2023-11-22T09:18:00;102221.78;;;3.17;100.00
27294;BME280;14785;52.556;13.430;2023-11-22T09:20:26;102219.25;;;2.97;100.00
27294;BME280;14785;52.556;13.430;2023-11-22T09:22:53;102229.81;;;3.51;100.00
27294;BME280;14785;52.556;13.430;2023-11-22T09:25:23;102217.63;;;3.67;100.00
27294;BME280;14785;52.556;13.430;2023-11-22T09:27:52;102204.03;;;3.22;100.00
27294;BME280;14785;52.556;13.430;2023-11-22T09:30:22;102199.19;;;3.32;100.00
27294;BME280;14785;52.556;13.430;2023-11-22T09:33:04;102197.91;;;2.66;100.00
27294;BME280;14785;52.556;13.430;2023-11-22T09:35:30;102195.34;;;2.83;100.00
27294;BME280;14785;52.556;13.430;2023-11-22T09:38:00;102197.28;;;2.98;100.00
27294;BME280;14785;52.556;13.430;2023-11-22T09:40:26;102191.53;;;3.27;100.00
27294;BME280;14785;52.556;13.430;2023-11-22T09:42:57;102187.81;;;3.31;100.00
27294;BME280;14785;52.556;13.430;2023-11-22T09:45:23;102176.59;;;3.63;100.00
27294;BME280;14785;52.556;13.430;2023-11-22T09:47:50;102178.91;;;3.52;100.00
27294;BME280;14785;52.556;13.430;2023-11-22T09:50:21;102162.16;;;3.89;100.00
27294;BME280;14785;52.556;13.430;2023-11-22T09:52:51;102165.84;;;3.68;100.00
27294;BME280;14785;52.556;13.430;2023-11-22T09:55:21;102168.22;;;4.41;100.00
27294;BME280;14785;52.556;13.430;2023-11-22T09:57:47;102173.72;;;4.69;100.00
27294;BME280;14785;52.556;13.430;2023-11-22T10:00:15;102179.06;;;4.35;100.00
27294;BME280;14785;52.556;13.430;2023-11-22T10:02:44;102184.66;;;4.94;100.00
27294;BME280;14785;52.556;13.430;2023-11-22T10:05:09;102206.13;;;4.71;100.00
27294;BME280;14785;52.556;13.430;2023-11-22T10:07:35;102193.97;;;5.61;100.00
27294;BME280;14785;52.556;13.430;2023-11-22T10:10:06;102214.28;;;6.06;100.00
27294;BME280;14785;52.556;13.430;2023-11-22T10:12:32;102210.72;;;7.33;100.00
27294;BME280;14785;52.556;13.430;2023-11-22T10:15:14;102201.50;;;7.53;100.00
27294;BME280;14785;52.556;13.430;2023-11-22T10:17:47;102200.19;;;7.05;100.00
27294;BME280;14785;52.556;13.430;2023-11-22T10:20:12;102197.84;;;7.41;100.00
27294;BME280;14785;52.556;13.430;2023-11-22T10:22:46;102213.16;;;7.50;100.00
27294;BME280;14785;52.556;13.430;2023-11-22T10:25:16;102212.59;;;7.99;100.00
27294;BME280;14785;52.556;13.430;2023-11-22T10:27:47;102215.91;;;7.49;100.00
27294;BME280;14785;52.556;13.430;2023-11-22T10:30:13;102216.78;;;8.28;100.00
27294;BME280;14785;52.556;13.430;2023-11-22T10:32:41;102220.38;;;8.14;100.00
27294;BME280;14785;52.556;13.430;2023-11-22T10:35:07;102222.03;;;8.67;100.00
27294;BME280;14785;52.556;13.430;2023-11-22T10:37:33;102217.84;;;8.13;100.00
27294;BME280;14785;52.556;13.430;2023-11-22T10:40:00;102219.53;;;8.14;100.00
27294;BME280;14785;52.556;13.430;2023-11-22T10:42:26;102206.31;;;8.26;100.00
27294;BME280;14785;52.556;13.430;2023-11-22T10:44:55;102214.16;;;7.89;100.00
27294;BME280;14785;52.556;13.430;2023-11-22T10:47:22;102209.09;;;7.98;100.00
27294;BME280;14785;52.556;13.430;2023-11-22T10:49:49;102215.25;;;7.99;100.00
27294;BME280;14785;52.556;13.430;2023-11-22T10:52:16;102220.88;;;7.80;100.00
27294;BME280;14785;52.556;13.430;2023-11-22T10:54:49;102222.84;;;7.91;100.00
27294;BME280;14785;52.556;13.430;2023-11-22T10:57:18;102224.41;;;8.20;100.00
27294;BME280;14785;52.556;13.430;2023-11-22T10:59:50;102224.31;;;7.82;100.00
27294;BME280;14785;52.556;13.430;2023-11-22T11:02:21;102225.81;;;8.25;100.00
27294;BME280;14785;52.556;13.430;2023-11-22T11:04:57;102221.19;;;8.15;100.00
27294;BME280;14785;52.556;13.430;2023-11-22T11:07:27;102223.94;;;8.01;100.00
27294;BME280;14785;52.556;13.430;2023-11-22T11:09:56;102211.56;;;8.14;100.00
27294;BME280;14785;52.556;13.430;2023-11-22T11:12:23;102212.16;;;8.31;100.00
27294;BME280;14785;52.556;13.430;2023-11-22T11:14:50;102208.84;;;8.28;100.00
27294;BME280;14785;52.556;13.430;2023-11-22T11:17:16;102192.66;;;8.06;100.00
27294;BME280;14785;52.556;13.430;2023-11-22T11:19:41;102196.25;;;8.44;100.00
27294;BME280;14785;52.556;13.430;2023-11-22T11:22:08;102191.22;;;9.02;100.00
27294;BME280;14785;52.556;13.430;2023-11-22T11:24:41;102190.91;;;8.94;100.00
27294;BME280;14785;52.556;13.430;2023-11-22T11:27:12;102191.28;;;9.25;100.00
27294;BME280;14785;52.556;13.430;2023-11-22T11:29:38;102194.66;;;8.79;100.00
27294;BME280;14785;52.556;13.430;2023-11-22T11:32:30;102180.78;;;8.75;100.00
27294;BME280;14785;52.556;13.430;2023-11-22T11:35:00;102175.41;;;9.13;100.00
27294;BME280;14785;52.556;13.430;2023-11-22T11:37:29;102159.53;;;9.24;100.00
27294;BME280;14785;52.556;13.430;2023-11-22T11:39:55;102158.78;;;9.69;100.00
27294;BME280;14785;52.556;13.430;2023-11-22T11:42:21;102158.63;;;9.36;100.00
27294;BME280;14785;52.556;13.430;2023-11-22T11:47:21;102163.81;;;7.89;100.00
27294;BME280;14785;52.556;13.430;2023-11-22T11:49:49;102135.97;;;8.21;100.00
27294;BME280;14785;52.556;13.430;2023-11-22T11:52:15;102128.75;;;9.45;100.00
27294;BME280;14785;52.556;13.430;2023-11-22T11:54:41;102126.16;;;9.56;100.00
27294;BME280;14785;52.556;13.430;2023-11-22T11:57:07;102120.91;;;9.78;100.00
27294;BME280;14785;52.556;13.430;2023-11-22T11:59:33;102129.38;;;7.89;100.00
27294;BME280;14785;52.556;13.430;2023-11-22T12:02:00;102118.41;;;7.55;100.00
27294;BME280;14785;52.556;13.430;2023-11-22T12:04:26;102111.59;;;8.66;100.00
27294;BME280;14785;52.556;13.430;2023-11-22T12:06:52;102102.41;;;8.95;100.00
27294;BME280;14785;52.556;13.430;2023-11-22T12:09:27;102101.25;;;7.61;100.00
27294;BME280;14785;52.556;13.430;2023-11-22T12:11:55;102092.91;;;7.79;100.00
27294;BME280;14785;52.556;13.430;2023-11-22T12:14:22;102077.22;;;9.24;100.00
27294;BME280;14785;52.556;13.430;2023-11-22T12:16:50;102079.72;;;10.07;100.00
27294;BME280;14785;52.556;13.430;2023-11-22T12:19:23;102071.53;;;8.33;100.00
27294;BME280;14785;52.556;13.430;2023-11-22T12:21:49;102057.19;;;7.72;100.00
27294;BME280;14785;52.556;13.430;2023-11-22T12:24:14;102054.25;;;7.25;100.00
27294;BME280;14785;52.556;13.430;2023-11-22T12:26:46;102045.66;;;6.95;100.00
27294;BME280;14785;52.556;13.430;2023-11-22T12:29:15;102030.81;;;6.66;100.00
27294;BME280;14785;52.556;13.430;2023-11-22T12:31:48;102037.13;;;7.04;100.00
27294;BME280;14785;52.556;13.430;2023-11-22T12:34:17;102036.34;;;7.29;100.00
27294;BME280;14785;52.556;13.430;2023-11-22T12:36:43;102033.88;;;7.13;100.00
27294;BME280;14785;52.556;13.430;2023-11-22T12:39:09;102034.22;;;7.86;100.00
27294;BME280;14785;52.556;13.430;2023-11-22T12:41:46;102039.06;;;7.66;100.00